Diyarbakir, Turkey
Current Conditions -  °F | °C
As of 3:20 PM on Saturday 25 Oct 2014 (Local Time) from LTCC Reporting Station
Broken Clouds Broken Clouds  
Wind Chill: 72°   Ceiling: 20000
Heat Index: 72°   Visibility: 6mi
Dew Point: 48°   Wind: 1mph
Humidity: 43%   Direction: NA
Pressure: 30"   Gusts: NA
Location:  37.92°N, 40.23°E
Report Text: LTCC 251220Z VRB01KT 9999 FEW040 BKN200 22/09 Q1016 NOSIG
Loading
Personal Weather Stations






























Interactive Weather Map
Tropical Storm Tracking
New forecast layout! Learn more

10-Day Weather Forecast

Advertisements
Track Severe Weather on mobile